Time;durP1;ratioP1;P1;durP2;ratioP2;P2;SDS_P1;SDS_P2;PMS_P1;PMS_P2;Temp;Humidity;BMP_temperature;BMP_pressure;BME280_temperature;BME280_humidity;BME280_pressure;Samples;Min_cycle;Max_cycle;Signal;HPM_P1;HPM_P2
2022/01/13 00:00:43;;;;;;;45.10;25.25;;;-2.10;99.90;;;;;;5092743;28;20032;-77
2022/01/13 00:03:09;;;;;;;44.22;25.88;;;-2.00;99.90;;;;;;5091379;28;20051;-78
2022/01/13 00:05:34;;;;;;;46.55;26.42;;;-2.00;99.90;;;;;;5092256;28;20021;-78
2022/01/13 00:08:00;;;;;;;47.83;25.70;;;-2.00;99.90;;;;;;5092114;28;20032;-78
2022/01/13 00:10:26;;;;;;;53.85;30.08;;;-2.00;99.90;;;;;;5092803;28;20030;-78
2022/01/13 00:12:58;;;;;;;53.90;28.65;;;-1.90;99.90;;;;;;5091290;28;20043;-77
2022/01/13 00:15:46;;;;;;;49.70;27.02;;;-1.90;99.90;;;;;;5092806;28;20031;-77
2022/01/13 00:18:15;;;;;;;50.75;29.00;;;-1.80;99.90;;;;;;5092336;28;20067;-78
2022/01/13 00:26:06;;;;;;;55.28;29.17;;;-1.80;99.90;;;;;;5091674;28;20484;-77
2022/01/13 00:28:32;;;;;;;53.15;29.60;;;-1.70;99.90;;;;;;5092703;28;20055;-78
2022/01/13 00:30:59;;;;;;;54.55;29.20;;;-1.70;99.90;;;;;;5087652;28;20064;-75
2022/01/13 00:33:26;;;;;;;56.55;29.65;;;-1.60;99.90;;;;;;5072191;28;20385;-75
2022/01/13 00:35:54;;;;;;;52.53;29.42;;;-1.60;99.90;;;;;;5090688;28;20055;-77
2022/01/13 00:38:20;;;;;;;54.40;28.63;;;-1.60;99.90;;;;;;5092261;28;20024;-78
2022/01/13 00:40:46;;;;;;;51.10;29.17;;;-1.60;99.90;;;;;;5092063;28;20028;-75
2022/01/13 00:43:11;;;;;;;48.92;27.50;;;-1.60;99.90;;;;;;5091307;28;20115;-77
2022/01/13 00:45:37;;;;;;;51.38;29.67;;;-1.60;99.90;;;;;;5091506;28;20055;-79
2022/01/13 00:48:03;;;;;;;53.00;28.85;;;-1.60;99.90;;;;;;5091278;28;20161;-77
2022/01/13 00:50:28;;;;;;;51.35;28.77;;;-1.60;99.90;;;;;;5092288;28;20111;-78
2022/01/13 00:52:54;;;;;;;50.17;27.98;;;-1.60;99.90;;;;;;5091188;28;20028;-78
2022/01/13 00:55:22;;;;;;;51.85;29.20;;;-1.60;99.90;;;;;;5091748;28;20058;-79
2022/01/13 00:57:48;;;;;;;52.53;28.98;;;-1.60;99.90;;;;;;5091908;28;20020;-73
2022/01/13 01:00:15;;;;;;;53.33;29.42;;;-1.60;99.90;;;;;;5092476;28;20028;-78
2022/01/13 01:02:41;;;;;;;49.97;28.33;;;-1.50;99.90;;;;;;5091949;28;20379;-77
2022/01/13 01:05:07;;;;;;;51.30;27.40;;;-1.50;99.90;;;;;;5091489;28;20126;-77
2022/01/13 01:07:35;;;;;;;49.53;28.85;;;-1.50;99.90;;;;;;5092269;28;20035;-78
2022/01/13 01:10:02;;;;;;;46.58;27.00;;;-1.50;99.90;;;;;;5090334;28;20070;-77
2022/01/13 01:12:30;;;;;;;50.72;28.17;;;-1.50;99.90;;;;;;5091796;28;20039;-78
2022/01/13 01:14:57;;;;;;;52.22;29.27;;;-1.50;99.90;;;;;;5091052;28;20032;-77
2022/01/13 01:17:23;;;;;;;52.78;28.17;;;-1.50;99.90;;;;;;5073497;28;20378;-77
2022/01/13 01:19:51;;;;;;;48.38;28.35;;;-1.50;99.90;;;;;;5091351;28;20038;-73
2022/01/13 01:25:32;;;;;;;47.05;26.63;;;-1.50;99.90;;;;;;5085583;28;20028;-72
2022/01/13 01:27:56;;;;;;;51.28;27.58;;;-1.40;99.90;;;;;;5088771;28;20461;-77
2022/01/13 01:30:29;;;;;;;47.78;27.67;;;-1.50;99.90;;;;;;5090351;28;20031;-77
2022/01/13 01:32:55;;;;;;;53.38;28.65;;;-1.40;99.90;;;;;;5090586;28;20038;-77
2022/01/13 01:35:25;;;;;;;51.70;28.40;;;-1.50;99.90;;;;;;5090905;28;20032;-78
2022/01/13 01:37:51;;;;;;;49.78;27.35;;;-1.40;99.90;;;;;;5091439;28;20024;-73
2022/01/13 01:40:17;;;;;;;48.72;27.40;;;-1.40;99.90;;;;;;5090617;28;20028;-78
2022/01/13 01:42:45;;;;;;;54.25;30.00;;;-1.40;99.90;;;;;;5091311;28;20028;-77
2022/01/13 01:45:12;;;;;;;50.42;27.33;;;-1.40;99.90;;;;;;5090764;28;20028;-78
2022/01/13 01:47:38;;;;;;;51.33;27.60;;;-1.40;99.90;;;;;;5091565;28;20028;-77
2022/01/13 01:50:17;;;;;;;49.15;27.00;;;-1.40;99.90;;;;;;5090470;28;20055;-75
2022/01/13 01:52:43;;;;;;;53.17;27.05;;;-1.40;99.90;;;;;;5091636;28;20047;-77
2022/01/13 01:55:09;;;;;;;48.42;26.73;;;-1.30;99.90;;;;;;5090354;28;20169;-78
2022/01/13 01:57:35;;;;;;;50.17;27.17;;;-1.30;99.90;;;;;;5091354;28;20107;-78
2022/01/13 02:00:04;;;;;;;46.83;27.05;;;-1.30;99.90;;;;;;5091216;28;20583;-78
2022/01/13 02:02:30;;;;;;;45.72;27.08;;;-1.30;99.90;;;;;;5092336;28;20039;-77
2022/01/13 02:04:55;;;;;;;45.38;26.10;;;-1.30;99.90;;;;;;5089522;28;20028;-77
2022/01/13 02:07:21;;;;;;;47.92;27.73;;;-1.20;99.90;;;;;;5091407;28;20099;-77
2022/01/13 02:09:51;;;;;;;49.97;27.23;;;-1.20;99.90;;;;;;5072746;28;20077;-78
2022/01/13 02:12:30;;;;;;;47.83;27.27;;;-1.20;99.90;;;;;;5091136;28;20104;-78
2022/01/13 02:17:25;;;;;;;49.13;26.67;;;-1.10;99.90;;;;;;5090717;28;20028;-78
2022/01/13 02:19:53;;;;;;;49.97;27.85;;;-1.10;99.90;;;;;;5085891;28;20435;-74
2022/01/13 02:22:19;;;;;;;46.22;26.30;;;-1.00;99.90;;;;;;5092631;28;20043;-78
2022/01/13 02:24:44;;;;;;;50.38;28.45;;;-1.10;99.90;;;;;;5093993;28;20032;-77
2022/01/13 02:27:10;;;;;;;47.78;28.40;;;-1.10;99.90;;;;;;5093996;28;20028;-77
2022/01/13 02:29:36;;;;;;;47.05;26.92;;;-1.10;99.90;;;;;;5094144;28;20054;-77
2022/01/13 02:32:04;;;;;;;46.88;27.17;;;-1.10;99.90;;;;;;5093548;28;20063;-78
2022/01/13 02:34:29;;;;;;;49.60;28.38;;;-1.10;99.90;;;;;;5075741;28;20032;-77
2022/01/13 02:36:56;;;;;;;50.15;28.65;;;-1.20;99.90;;;;;;5093950;28;20103;-77
2022/01/13 02:39:24;;;;;;;46.08;27.15;;;-1.10;99.90;;;;;;5094254;28;20469;-77
2022/01/13 02:41:50;;;;;;;49.80;26.90;;;-1.20;99.90;;;;;;5094384;28;20036;-79
2022/01/13 02:44:20;;;;;;;47.33;26.58;;;-1.10;99.90;;;;;;5094139;28;20055;-78
2022/01/13 02:49:19;;;;;;;54.35;29.67;;;-1.10;99.90;;;;;;5093846;28;20079;-77
2022/01/13 02:51:47;;;;;;;50.95;28.40;;;-1.10;99.90;;;;;;5089409;28;20066;-77
2022/01/13 02:54:13;;;;;;;49.45;27.67;;;-1.10;99.90;;;;;;5093763;28;20085;-78
2022/01/13 02:56:39;;;;;;;48.40;29.05;;;-1.10;99.90;;;;;;5094149;28;20067;-77
2022/01/13 02:59:06;;;;;;;48.42;27.17;;;-1.10;99.90;;;;;;5092844;28;20024;-77
2022/01/13 03:01:33;;;;;;;46.38;26.77;;;-1.20;99.90;;;;;;5094125;28;20500;-76
2022/01/13 03:04:03;;;;;;;49.55;27.65;;;-1.20;99.90;;;;;;5093427;28;20031;-76
2022/01/13 03:06:34;;;;;;;;;;;-1.20;99.90;;;;;;5093544;28;20032;-77
2022/01/13 03:09:00;;;;;;;47.08;25.85;;;-1.20;99.90;;;;;;5093373;28;19958;-77
2022/01/13 03:11:38;;;;;;;51.03;28.40;;;-1.20;99.90;;;;;;5093891;28;20023;-77
2022/01/13 03:14:10;;;;;;;48.33;27.65;;;-1.20;99.90;;;;;;5088404;28;20131;-76
2022/01/13 03:16:36;;;;;;;45.63;25.58;;;-1.20;99.90;;;;;;5088407;28;20516;-76
2022/01/13 03:19:02;;;;;;;50.05;26.80;;;-1.20;99.90;;;;;;5092969;28;20028;-76
2022/01/13 03:21:28;;;;;;;49.97;27.45;;;-1.20;99.90;;;;;;5093794;28;20036;-76
2022/01/13 03:23:53;;;;;;;48.97;27.35;;;-1.20;99.90;;;;;;5092930;28;20036;-72
2022/01/13 03:26:22;;;;;;;47.72;27.02;;;-1.10;99.90;;;;;;5093083;28;20107;-77
2022/01/13 03:28:55;;;;;;;44.40;25.85;;;-1.20;99.90;;;;;;5093654;28;20107;-76
2022/01/13 03:31:23;;;;;;;49.63;27.40;;;-1.20;99.90;;;;;;5093552;28;20031;-74
2022/01/13 03:33:49;;;;;;;47.13;27.52;;;-1.30;99.90;;;;;;5092859;28;20032;-75
2022/01/13 03:36:16;;;;;;;48.08;26.70;;;-1.30;99.90;;;;;;5091804;28;20052;-77
2022/01/13 03:38:42;;;;;;;47.20;26.17;;;-1.30;99.90;;;;;;5093577;28;20043;-76
2022/01/13 03:41:07;;;;;;;48.22;26.08;;;-1.30;99.90;;;;;;5092346;28;20035;-76
2022/01/13 03:43:36;;;;;;;46.53;26.48;;;-1.40;99.90;;;;;;5093150;28;20016;-77
2022/01/13 03:46:02;;;;;;;44.85;26.73;;;-1.30;99.90;;;;;;5092562;28;20024;-76
2022/01/13 03:48:28;;;;;;;47.92;27.90;;;-1.20;99.90;;;;;;5092756;28;20485;-75
2022/01/13 03:50:53;;;;;;;45.78;25.83;;;-1.10;99.90;;;;;;5093022;28;20032;-71
2022/01/13 03:53:28;;;;;;;42.35;24.95;;;-1.20;99.90;;;;;;5093107;28;20036;-76
2022/01/13 03:56:15;;;;;;;46.50;25.10;;;-1.30;99.90;;;;;;5092778;28;20024;-73
2022/01/13 03:59:14;;;;;;;45.17;25.63;;;-1.40;99.90;;;;;;5091485;28;20038;-75
2022/01/13 04:01:58;;;;;;;45.85;25.15;;;-1.40;99.90;;;;;;5091130;28;20028;-76
2022/01/13 04:04:23;;;;;;;44.35;25.08;;;-1.50;99.90;;;;;;5091510;28;20016;-79
2022/01/13 04:06:49;;;;;;;43.75;25.20;;;-1.60;99.90;;;;;;5087564;28;20058;-80
2022/01/13 04:09:33;;;;;;;51.60;27.30;;;-1.60;99.90;;;;;;5087181;28;20024;-76
2022/01/13 04:12:03;;;;;;;47.17;26.00;;;-1.50;99.90;;;;;;5088601;28;20107;-79
2022/01/13 04:14:37;;;;;;;43.13;24.58;;;-1.50;99.90;;;;;;5089044;28;20456;-80
2022/01/13 04:17:03;;;;;;;46.67;24.92;;;-1.50;99.90;;;;;;5090624;28;20518;-79
2022/01/13 04:19:29;;;;;;;45.22;25.90;;;-1.50;99.90;;;;;;5091018;28;20408;-79
2022/01/13 04:21:54;;;;;;;44.78;25.63;;;-1.60;99.90;;;;;;5090876;28;20035;-73
2022/01/13 04:24:20;;;;;;;47.22;26.60;;;-1.60;99.90;;;;;;5091005;28;20103;-80
2022/01/13 04:26:46;;;;;;;49.67;25.77;;;-1.70;99.90;;;;;;5088846;28;20032;-79
2022/01/13 04:31:39;;;;;;;46.20;25.80;;;-1.80;99.90;;;;;;5091432;28;20028;-80
2022/01/13 04:34:05;;;;;;;47.55;26.45;;;-1.80;99.90;;;;;;5091648;28;20043;-78
2022/01/13 04:36:30;;;;;;;43.08;25.65;;;-1.80;99.90;;;;;;5092499;28;20024;-80
2022/01/13 04:38:56;;;;;;;46.17;25.05;;;-1.80;99.90;;;;;;5091794;28;20052;-73
2022/01/13 04:41:30;;;;;;;48.60;26.73;;;-1.80;99.90;;;;;;5092227;28;20103;-81
2022/01/13 04:43:56;;;;;;;47.70;25.95;;;-1.80;99.90;;;;;;5091172;28;20024;-74
2022/01/13 04:46:22;;;;;;;48.45;26.63;;;-1.80;99.90;;;;;;5091818;28;20452;-77
2022/01/13 04:48:48;;;;;;;50.25;26.00;;;-1.80;99.90;;;;;;5091950;28;20121;-78
2022/01/13 04:51:14;;;;;;;49.10;26.50;;;-1.70;99.90;;;;;;5091311;28;20461;-77
2022/01/13 04:53:39;;;;;;;44.85;25.80;;;-1.60;99.90;;;;;;5092256;28;20036;-77
2022/01/13 04:56:11;;;;;;;47.88;26.02;;;-1.60;99.90;;;;;;5089974;28;20058;-77
2022/01/13 04:58:37;;;;;;;46.55;25.35;;;-1.60;99.90;;;;;;5091965;28;20066;-76
2022/01/13 05:01:03;;;;;;;43.17;24.13;;;-1.60;99.90;;;;;;5088057;28;20060;-76
2022/01/13 05:03:29;;;;;;;45.70;25.60;;;-1.60;99.90;;;;;;5089384;28;20453;-75
2022/01/13 05:05:55;;;;;;;43.17;24.92;;;-1.60;99.90;;;;;;5090802;28;20039;-73
2022/01/13 05:08:21;;;;;;;41.85;24.75;;;-1.60;99.90;;;;;;5091341;28;20031;-76
2022/01/13 05:10:46;;;;;;;48.17;25.33;;;-1.60;99.90;;;;;;5091633;28;20032;-77
2022/01/13 05:13:12;;;;;;;39.70;23.88;;;-1.60;99.90;;;;;;5090856;28;20110;-78
2022/01/13 05:15:41;;;;;;;46.67;25.63;;;-1.60;99.90;;;;;;5091628;28;20032;-77
2022/01/13 05:18:21;;;;;;;49.50;25.85;;;-1.60;99.90;;;;;;5090912;28;20028;-78
2022/01/13 05:20:51;;;;;;;43.42;23.90;;;-1.60;99.90;;;;;;5073758;28;20029;-77
2022/01/13 05:23:17;;;;;;;40.40;23.83;;;-1.50;99.90;;;;;;5091093;28;20614;-77
2022/01/13 05:25:44;;;;;;;44.38;24.38;;;-1.40;99.90;;;;;;5091093;28;20024;-75
2022/01/13 05:28:10;;;;;;;46.42;25.27;;;-1.40;99.90;;;;;;5090899;28;20052;-77
2022/01/13 05:30:36;;;;;;;43.28;23.83;;;-1.40;99.90;;;;;;5090079;28;20032;-77
2022/01/13 05:33:02;;;;;;;42.90;23.42;;;-1.50;99.90;;;;;;5091196;28;20024;-76
2022/01/13 05:35:29;;;;;;;44.38;23.15;;;-1.50;99.90;;;;;;5073744;28;20028;-77
2022/01/13 05:37:54;;;;;;;40.83;23.65;;;-1.50;99.90;;;;;;5091654;28;20077;-78
2022/01/13 05:40:21;;;;;;;40.78;23.08;;;-1.60;99.90;;;;;;5090619;28;20028;-77
2022/01/13 05:42:47;;;;;;;43.85;24.10;;;-1.60;99.90;;;;;;5091800;28;20032;-77
2022/01/13 05:45:20;;;;;;;45.45;23.92;;;-1.50;99.90;;;;;;5090873;28;20377;-77
2022/01/13 05:47:48;;;;;;;47.85;23.60;;;-1.50;99.90;;;;;;5091714;28;20024;-77
2022/01/13 05:50:16;;;;;;;44.17;24.40;;;-1.50;99.90;;;;;;5090676;28;20119;-77
2022/01/13 05:52:42;;;;;;;42.50;24.10;;;-1.50;99.90;;;;;;5091665;28;20036;-77
2022/01/13 05:55:09;;;;;;;47.30;25.17;;;-1.50;99.90;;;;;;5087279;28;20253;-77
2022/01/13 05:57:35;;;;;;;40.95;23.60;;;-1.60;99.90;;;;;;5074912;28;20028;-76
2022/01/13 06:00:01;;;;;;;41.67;24.50;;;-1.50;99.90;;;;;;5079888;28;20057;-75
2022/01/13 06:02:26;;;;;;;43.33;23.13;;;-1.50;99.90;;;;;;5095360;28;20072;-77
2022/01/13 06:04:52;;;;;;;42.22;24.60;;;-1.40;99.90;;;;;;5095284;28;20028;-76
2022/01/13 06:07:18;;;;;;;47.65;25.30;;;-1.40;99.90;;;;;;5094556;28;20035;-76
2022/01/13 06:09:44;;;;;;;41.42;24.50;;;-1.40;99.90;;;;;;5094655;28;20062;-77
2022/01/13 06:12:10;;;;;;;42.55;23.92;;;-1.40;99.90;;;;;;5094306;28;20028;-75
2022/01/13 06:14:35;;;;;;;46.20;24.33;;;-1.40;99.90;;;;;;5095271;28;20032;-78
2022/01/13 06:17:01;;;;;;;43.50;23.75;;;-1.40;99.90;;;;;;5094569;28;20024;-77
2022/01/13 06:19:27;;;;;;;39.65;23.08;;;-1.40;99.90;;;;;;5095480;28;20453;-77
2022/01/13 06:21:53;;;;;;;42.40;23.48;;;-1.40;99.90;;;;;;5095295;28;20043;-77
2022/01/13 06:24:19;;;;;;;43.90;24.52;;;-1.40;99.90;;;;;;5094353;28;20626;-77
2022/01/13 06:26:44;;;;;;;40.78;23.02;;;-1.40;99.90;;;;;;5095263;28;20447;-78
2022/01/13 06:29:10;;;;;;;40.75;23.58;;;-1.30;99.90;;;;;;5093933;28;20024;-77
2022/01/13 06:31:36;;;;;;;42.80;24.35;;;-1.30;99.90;;;;;;5093599;28;20036;-77
2022/01/13 06:34:02;;;;;;;44.95;23.88;;;-1.30;99.90;;;;;;5094068;28;20040;-79
2022/01/13 06:36:28;;;;;;;46.20;23.95;;;-1.30;99.90;;;;;;5094492;28;20032;-85
2022/01/13 06:38:54;;;;;;;43.63;23.83;;;-1.40;99.90;;;;;;5097011;28;20073;-78
2022/01/13 06:41:20;;;;;;;48.08;24.23;;;-1.40;99.90;;;;;;5093604;28;20032;-84
2022/01/13 06:43:46;;;;;;;44.78;24.08;;;-1.40;99.90;;;;;;5094611;28;20031;-77
2022/01/13 06:46:12;;;;;;;47.22;23.77;;;-1.30;99.90;;;;;;5095091;28;20030;-84
2022/01/13 06:48:38;;;;;;;44.72;23.88;;;-1.40;99.90;;;;;;5094960;28;20484;-75
2022/01/13 06:51:04;;;;;;;52.20;25.95;;;-1.40;99.90;;;;;;5078957;28;20041;-83
2022/01/13 06:53:29;;;;;;;47.75;24.33;;;-1.30;99.90;;;;;;5073849;28;20038;-84
2022/01/13 06:55:55;;;;;;;43.53;24.27;;;-1.30;99.90;;;;;;5073903;28;20107;-78
2022/01/13 06:58:21;;;;;;;46.13;26.25;;;-1.30;99.90;;;;;;5073576;28;20120;-77
2022/01/13 07:00:46;;;;;;;46.15;25.70;;;-1.30;99.90;;;;;;5078073;28;20040;-78
2022/01/13 07:03:12;;;;;;;50.22;25.77;;;-1.30;99.90;;;;;;5093357;28;20031;-80
2022/01/13 07:05:38;;;;;;;46.42;26.83;;;-1.30;99.90;;;;;;5094275;28;20032;-79
2022/01/13 07:08:04;;;;;;;43.85;24.95;;;-1.30;99.90;;;;;;5090676;28;20034;-80
2022/01/13 07:10:29;;;;;;;45.35;25.08;;;-1.30;99.90;;;;;;5114138;28;20085;-79
2022/01/13 07:12:55;;;;;;;41.83;22.92;;;-1.30;99.90;;;;;;5114341;28;20479;-80
2022/01/13 07:15:22;;;;;;;44.00;23.80;;;-1.30;99.90;;;;;;5114023;28;20031;-80
2022/01/13 07:17:48;;;;;;;42.97;23.25;;;-1.20;99.90;;;;;;5111901;28;20036;-79
2022/01/13 07:20:14;;;;;;;46.53;24.75;;;-1.20;99.90;;;;;;5095380;28;20427;-79
2022/01/13 07:22:40;;;;;;;40.85;23.88;;;-1.10;99.90;;;;;;5113753;28;20084;-79
2022/01/13 07:25:07;;;;;;;45.50;24.33;;;-1.20;99.90;;;;;;5094677;28;20043;-79
2022/01/13 07:27:33;;;;;;;46.50;23.98;;;-1.10;99.90;;;;;;5093596;28;20024;-79
2022/01/13 07:29:59;;;;;;;39.80;23.27;;;-1.10;99.90;;;;;;5093749;28;20073;-80
2022/01/13 07:32:25;;;;;;;41.58;22.83;;;-1.10;99.90;;;;;;5084195;28;20032;-79
2022/01/13 07:34:50;;;;;;;42.45;23.58;;;-1.10;99.90;;;;;;5092573;28;20053;-78
2022/01/13 07:37:16;;;;;;;43.47;23.02;;;-1.10;99.90;;;;;;5091951;28;20031;-81
2022/01/13 07:39:42;;;;;;;40.25;23.83;;;-1.00;99.90;;;;;;5075194;28;20439;-76
2022/01/13 07:42:08;;;;;;;38.50;22.73;;;-1.00;99.90;;;;;;5092056;28;20031;-75
2022/01/13 07:44:34;;;;;;;48.63;24.95;;;-0.90;99.90;;;;;;5080995;28;20033;-74
2022/01/13 07:47:00;;;;;;;36.22;22.25;;;-0.90;99.90;;;;;;5054091;28;20427;-74
2022/01/13 07:49:27;;;;;;;39.20;22.45;;;-0.90;99.90;;;;;;5071642;28;20045;-75
2022/01/13 07:51:53;;;;;;;43.85;24.23;;;-0.80;99.90;;;;;;5084612;28;20066;-73
2022/01/13 07:54:19;;;;;;;38.92;21.33;;;-0.70;99.90;;;;;;5075669;28;20078;-72
2022/01/13 07:56:45;;;;;;;36.15;20.55;;;-0.70;99.90;;;;;;5083648;28;20028;-74
2022/01/13 07:59:10;;;;;;;38.17;21.73;;;-0.70;99.90;;;;;;5090267;28;20054;-74
2022/01/13 08:01:36;;;;;;;39.38;22.23;;;-0.70;99.90;;;;;;5080000;28;20036;-74
2022/01/13 08:04:01;;;;;;;34.95;20.63;;;-0.60;99.90;;;;;;5072667;28;20054;-71
2022/01/13 08:06:27;;;;;;;41.92;22.10;;;-0.60;99.90;;;;;;5076468;28;20028;-74
2022/01/13 08:08:53;;;;;;;38.13;22.23;;;-0.50;99.90;;;;;;5090425;28;20035;-74
2022/01/13 08:11:19;;;;;;;38.88;22.27;;;-0.50;99.90;;;;;;5091587;28;20032;-75
2022/01/13 08:13:45;;;;;;;47.95;26.02;;;-0.50;99.90;;;;;;5089315;28;20024;-74
2022/01/13 08:16:11;;;;;;;44.92;23.88;;;-0.50;99.90;;;;;;5091189;28;20016;-75
2022/01/13 08:21:23;;;;;;;37.35;19.92;;;-0.60;99.90;;;;;;5071290;28;20085;-75
2022/01/13 08:23:50;;;;;;;39.55;21.95;;;-0.50;99.90;;;;;;5080111;28;20035;-74
2022/01/13 08:26:16;;;;;;;34.95;19.65;;;-0.60;99.90;;;;;;5054421;28;20159;-74
2022/01/13 08:28:42;;;;;;;35.58;19.30;;;-0.60;99.90;;;;;;5092497;28;20373;-75
2022/01/13 08:31:08;;;;;;;37.88;19.17;;;-0.60;99.90;;;;;;5072456;28;20039;-74
2022/01/13 08:33:34;;;;;;;33.40;17.90;;;-0.50;99.90;;;;;;5053432;28;20094;-75
2022/01/13 08:36:00;;;;;;;34.53;16.60;;;-0.50;99.90;;;;;;5071692;28;20020;-75
2022/01/13 08:38:25;;;;;;;32.13;17.08;;;-0.50;99.90;;;;;;5075810;28;20020;-74
2022/01/13 08:40:56;;;;;;;29.48;16.08;;;-0.50;99.90;;;;;;5090771;28;20084;-73
2022/01/13 08:43:22;;;;;;;27.67;16.73;;;-0.50;99.90;;;;;;5083083;28;20020;-73
2022/01/13 08:45:48;;;;;;;27.00;16.60;;;-0.40;99.90;;;;;;5092620;28;20035;-73
2022/01/13 08:48:14;;;;;;;29.50;16.02;;;-0.50;99.90;;;;;;5090718;28;20056;-73
2022/01/13 08:50:40;;;;;;;29.02;16.65;;;-0.50;99.90;;;;;;5076357;28;20430;-73
2022/01/13 08:53:06;;;;;;;30.58;17.48;;;-0.50;99.90;;;;;;5070958;28;20036;-72
2022/01/13 08:55:32;;;;;;;30.88;17.85;;;-0.50;99.90;;;;;;5071610;28;20577;-73
2022/01/13 08:57:58;;;;;;;27.45;16.95;;;-0.50;99.90;;;;;;5081512;28;20028;-74
2022/01/13 09:00:25;;;;;;;29.88;17.67;;;-0.50;99.90;;;;;;5073939;28;20046;-73
2022/01/13 09:02:50;;;;;;;33.08;18.70;;;-0.60;99.90;;;;;;5074338;28;20029;-73
2022/01/13 09:05:18;;;;;;;32.15;17.98;;;-0.50;99.90;;;;;;5070732;28;20027;-73
2022/01/13 09:07:44;;;;;;;34.85;18.60;;;-0.50;99.90;;;;;;5091621;28;20119;-73
2022/01/13 09:10:11;;;;;;;29.85;17.88;;;-0.60;99.90;;;;;;5091086;28;20024;-73
2022/01/13 09:12:37;;;;;;;32.50;19.25;;;-0.60;99.90;;;;;;5089891;28;20039;-73
2022/01/13 09:15:15;;;;;;;38.95;19.85;;;-0.60;99.90;;;;;;5077464;28;20028;-73
2022/01/13 09:17:42;;;;;;;36.35;20.02;;;-0.50;99.90;;;;;;5091531;28;20436;-74
2022/01/13 09:20:10;;;;;;;33.97;19.20;;;-0.40;99.90;;;;;;5090757;28;20032;-71
2022/01/13 09:22:36;;;;;;;29.83;17.08;;;-0.30;99.90;;;;;;5087473;28;20389;-73
2022/01/13 09:25:02;;;;;;;31.92;17.67;;;-0.30;99.90;;;;;;5089091;28;20027;-73
2022/01/13 09:27:28;;;;;;;33.08;19.65;;;-0.30;99.90;;;;;;5090693;28;20071;-73
2022/01/13 09:29:53;;;;;;;35.15;18.85;;;-0.30;99.90;;;;;;5059410;28;20462;-73
2022/01/13 09:32:19;;;;;;;35.28;19.02;;;-0.30;99.90;;;;;;5083882;28;20123;-73
2022/01/13 09:34:45;;;;;;;31.25;17.50;;;-0.40;99.90;;;;;;5075018;28;20067;-72
2022/01/13 09:37:11;;;;;;;38.72;18.33;;;-0.20;99.90;;;;;;5074167;28;20028;-72
2022/01/13 09:39:37;;;;;;;32.65;18.58;;;-0.20;99.90;;;;;;5087235;28;20114;-73
2022/01/13 09:42:04;;;;;;;34.47;18.83;;;-0.30;99.90;;;;;;5093703;28;20032;-73
2022/01/13 09:44:31;;;;;;;33.38;18.80;;;-0.30;99.90;;;;;;5075797;28;20028;-73
2022/01/13 09:46:57;;;;;;;29.45;17.05;;;-0.30;99.90;;;;;;5078257;28;20028;-73
2022/01/13 09:49:22;;;;;;;33.28;17.92;;;-0.20;99.90;;;;;;5089994;28;20154;-73
2022/01/13 09:51:49;;;;;;;30.48;17.92;;;-0.20;99.90;;;;;;5080150;28;20047;-74
2022/01/13 09:54:16;;;;;;;29.02;17.33;;;-0.10;99.90;;;;;;5074268;28;20154;-73
2022/01/13 09:56:42;;;;;;;31.77;17.42;;;-0.10;99.90;;;;;;5077250;28;20440;-72
2022/01/13 09:59:08;;;;;;;27.23;16.38;;;-0.10;99.90;;;;;;5093092;28;20028;-73
2022/01/13 10:01:33;;;;;;;29.17;16.38;;;0.10;99.90;;;;;;5091345;28;20056;-73
2022/01/13 10:03:59;;;;;;;27.48;15.35;;;0.20;99.90;;;;;;5086280;28;20032;-73
2022/01/13 10:06:25;;;;;;;25.30;15.75;;;0.20;99.90;;;;;;5092114;28;20039;-73
2022/01/13 10:08:58;;;;;;;28.02;16.23;;;0.30;99.90;;;;;;5093144;28;20131;-73
2022/01/13 10:11:36;;;;;;;36.33;18.05;;;0.30;99.90;;;;;;5092542;28;20076;-73
2022/01/13 10:16:55;;;;;;;38.00;20.73;;;0.40;99.90;;;;;;5082246;28;20079;-73
2022/01/13 10:19:39;;;;;;;34.38;19.85;;;0.50;99.90;;;;;;5094300;28;20032;-73
2022/01/13 10:22:27;;;;;;;37.10;20.80;;;0.50;99.90;;;;;;5094012;28;20058;-73
2022/01/13 10:24:55;;;;;;;32.45;19.70;;;0.50;99.90;;;;;;5093946;28;20447;-73
2022/01/13 10:27:33;;;;;;;38.20;21.05;;;0.50;99.90;;;;;;5081676;28;20390;-73
2022/01/13 10:30:05;;;;;;;45.63;22.27;;;0.60;99.90;;;;;;5093212;28;20039;-73
2022/01/13 10:32:38;;;;;;;41.20;20.42;;;0.60;99.90;;;;;;5093343;28;20248;-73
2022/01/13 10:35:06;;;;;;;30.45;18.23;;;0.70;99.90;;;;;;5094457;28;20099;-73
2022/01/13 10:37:36;;;;;;;38.22;19.95;;;0.80;99.90;;;;;;5081127;28;20524;-73
2022/01/13 10:40:12;;;;;;;34.50;19.65;;;0.80;99.90;;;;;;5073603;28;20025;-72
2022/01/13 10:45:26;;;;;;;32.53;19.10;;;0.90;99.90;;;;;;5078704;28;20038;-73
2022/01/13 10:48:02;;;;;;;34.13;18.92;;;0.90;99.90;;;;;;5093110;28;20032;-73
2022/01/13 10:50:33;;;;;;;32.67;19.38;;;0.90;99.90;;;;;;5055629;28;20032;-72
2022/01/13 10:53:04;;;;;;;32.22;18.83;;;0.90;99.90;;;;;;5078149;28;20032;-73
2022/01/13 10:55:34;;;;;;;28.15;17.52;;;0.90;99.90;;;;;;5093519;28;20028;-73
2022/01/13 10:57:59;;;;;;;41.08;20.77;;;1.00;99.90;;;;;;5093872;28;20040;-73
2022/01/13 11:00:27;;;;;;;34.53;19.73;;;1.10;99.90;;;;;;5087072;28;20027;-73
2022/01/13 11:03:10;;;;;;;34.00;19.23;;;1.20;99.90;;;;;;5073699;28;20040;-73
2022/01/13 11:05:46;;;;;;;33.17;18.40;;;1.20;99.90;;;;;;5080474;28;20091;-73
2022/01/13 11:08:31;;;;;;;33.72;18.58;;;1.30;99.90;;;;;;5093545;28;20028;-71
2022/01/13 11:11:02;;;;;;;34.97;19.48;;;1.30;99.90;;;;;;5094276;28;20103;-73
2022/01/13 11:13:30;;;;;;;35.63;17.75;;;1.40;99.90;;;;;;5088291;28;20047;-73
2022/01/13 11:15:57;;;;;;;32.28;18.05;;;1.40;99.90;;;;;;5101330;28;20027;-74
2022/01/13 11:18:31;;;;;;;29.55;17.95;;;1.40;99.90;;;;;;5103796;28;20101;-74
2022/01/13 11:20:58;;;;;;;31.85;16.65;;;1.50;99.90;;;;;;5080797;28;20396;-72
2022/01/13 11:23:24;;;;;;;29.50;17.27;;;1.40;99.90;;;;;;5091431;28;20447;-73
2022/01/13 11:25:52;;;;;;;26.77;17.05;;;1.50;99.90;;;;;;5077884;28;20131;-73
2022/01/13 11:28:19;;;;;;;32.08;17.48;;;1.50;99.90;;;;;;5083876;28;20028;-73
2022/01/13 11:30:46;;;;;;;28.42;16.02;;;1.60;99.90;;;;;;5079140;28;20100;-73
2022/01/13 11:33:12;;;;;;;28.98;17.50;;;1.70;99.90;;;;;;5092870;28;20116;-73
2022/01/13 11:35:44;;;;;;;31.13;17.52;;;1.80;99.90;;;;;;5076574;28;20025;-74
2022/01/13 11:38:11;;;;;;;33.03;17.42;;;1.80;99.90;;;;;;5080898;28;20036;-71
2022/01/13 11:40:45;;;;;;;28.27;15.48;;;1.90;99.90;;;;;;5075173;28;20046;-73
2022/01/13 11:43:38;;;;;;;30.10;16.83;;;1.90;99.90;;;;;;5092676;28;20059;-71
2022/01/13 11:46:19;;;;;;;26.60;15.55;;;2.00;99.90;;;;;;5087309;28;20048;-73
2022/01/13 11:49:11;;;;;;;25.98;15.73;;;2.10;99.90;;;;;;5093442;28;20048;-74
2022/01/13 11:52:10;;;;;;;25.92;14.55;;;2.10;99.90;;;;;;5092892;28;20465;-74
2022/01/13 11:54:37;;;;;;;22.60;14.13;;;2.10;99.90;;;;;;5071827;28;20107;-73
2022/01/13 11:57:22;;;;;;;30.70;14.85;;;2.20;99.90;;;;;;5080511;28;20031;-74
2022/01/13 11:59:56;;;;;;;24.17;14.18;;;2.40;99.90;;;;;;5077191;28;20024;-73
2022/01/13 12:02:29;;;;;;;24.33;14.32;;;2.40;99.90;;;;;;5057604;28;20484;-74
2022/01/13 12:05:03;;;;;;;25.30;14.20;;;2.50;99.90;;;;;;5091812;28;20020;-75
2022/01/13 12:07:47;;;;;;;21.88;13.13;;;2.40;99.90;;;;;;5091687;28;20035;-74
2022/01/13 12:10:24;;;;;;;20.08;12.82;;;2.60;99.90;;;;;;5092476;28;20082;-72
2022/01/13 12:12:54;;;;;;;21.02;12.93;;;2.60;99.90;;;;;;5087293;28;20033;-75
2022/01/13 12:15:21;;;;;;;21.02;12.10;;;2.70;99.90;;;;;;5073208;28;20112;-74
2022/01/13 12:17:49;;;;;;;21.25;12.05;;;2.70;99.90;;;;;;5077386;28;20035;-72
2022/01/13 12:20:58;;;;;;;20.92;11.63;;;2.70;99.90;;;;;;5090376;28;20493;-72
2022/01/13 12:23:43;;;;;;;30.55;13.82;;;2.80;99.90;;;;;;5091905;28;20020;-74
2022/01/13 12:26:30;;;;;;;21.42;13.85;;;2.80;99.90;;;;;;5057686;28;20036;-73
2022/01/13 12:29:09;;;;;;;26.92;14.85;;;2.70;99.90;;;;;;5087164;28;20082;-74
2022/01/13 12:31:35;;;;;;;26.00;14.75;;;2.80;99.90;;;;;;5091030;28;20685;-74
2022/01/13 12:34:00;;;;;;;26.30;14.60;;;2.90;99.90;;;;;;5091698;28;20062;-75
2022/01/13 12:36:29;;;;;;;22.48;13.73;;;;;;;;;;5090832;28;20322;-74
2022/01/13 12:38:58;;;;;;;25.70;14.57;;;;;;;;;;5073198;28;20020;-75
2022/01/13 12:41:26;;;;;;;24.23;14.05;;;;;;;;;;5078489;28;20492;-74
2022/01/13 12:44:12;;;;;;;27.08;14.25;;;3.00;99.90;;;;;;5071180;28;20457;-75
2022/01/13 12:46:39;;;;;;;24.52;14.15;;;3.00;99.90;;;;;;5070606;28;20025;-75
2022/01/13 12:49:07;;;;;;;24.95;14.35;;;3.00;99.90;;;;;;5071052;28;20199;-74
2022/01/13 12:51:33;;;;;;;20.95;13.75;;;3.00;99.90;;;;;;5083352;28;20845;-74
2022/01/13 12:53:59;;;;;;;20.52;14.00;;;3.00;99.90;;;;;;5073136;28;20028;-74
2022/01/13 12:56:27;;;;;;;24.10;14.88;;;3.20;99.90;;;;;;5090553;28;20028;-74
2022/01/13 12:59:06;;;;;;;24.80;14.27;;;3.20;99.90;;;;;;5091488;28;20060;-74
2022/01/13 13:01:33;;;;;;;27.90;13.82;;;3.30;99.90;;;;;;5088968;28;20384;-75